Time;durP1;ratioP1;P1;durP2;ratioP2;P2;SDS_P1;SDS_P2;PMS_P1;PMS_P2;Temp;Humidity;BMP_temperature;BMP_pressure;BME280_temperature;BME280_humidity;BME280_pressure;Samples;Min_cycle;Max_cycle;Signal;HPM_P1;HPM_P2
2022/01/23 00:00:39;;;;;;;2.20;1.00;;;23.20;33.30;;;;;;5026205;28;20091;-41
2022/01/23 00:03:09;;;;;;;3.13;1.30;;;23.10;33.30;;;;;;5026233;28;20025;-41
2022/01/23 00:05:42;;;;;;;3.33;1.52;;;23.20;33.30;;;;;;5024507;28;20116;-41
2022/01/23 00:08:09;;;;;;;3.08;1.38;;;23.10;33.20;;;;;;5024167;28;20025;-41
2022/01/23 00:10:35;;;;;;;2.47;1.10;;;23.10;33.20;;;;;;5021019;28;20485;-41
2022/01/23 00:13:11;;;;;;;2.75;1.35;;;23.10;33.20;;;;;;5025686;28;20068;-41
2022/01/23 00:18:22;;;;;;;2.55;1.20;;;23.10;33.20;;;;;;5025683;28;20032;-40
2022/01/23 00:20:49;;;;;;;3.30;1.42;;;23.10;33.10;;;;;;5021482;28;20035;-41
2022/01/23 00:31:29;;;;;;;2.63;1.15;;;23.00;33.00;;;;;;5025918;28;20507;-41
2022/01/23 00:33:56;;;;;;;3.50;1.17;;;23.00;33.00;;;;;;5025368;28;20030;-41
2022/01/23 00:36:24;;;;;;;2.78;1.42;;;23.00;33.00;;;;;;5025642;28;20036;-41
2022/01/23 00:38:50;;;;;;;2.40;1.10;;;23.00;33.00;;;;;;5025323;28;20026;-40
2022/01/23 00:41:16;;;;;;;2.47;1.20;;;23.00;33.00;;;;;;5025723;28;20677;-41
2022/01/23 00:43:43;;;;;;;2.25;1.25;;;23.00;33.00;;;;;;5024888;28;20026;-41
2022/01/23 00:46:22;;;;;;;2.20;1.17;;;23.00;33.00;;;;;;5024931;28;20033;-41
2022/01/23 00:49:36;;;;;;;2.25;1.10;;;23.00;33.00;;;;;;5025464;28;20014;-42
2022/01/23 00:51:39;;;;;;;2.70;1.17;;;22.90;33.00;;;;;;5024047;28;20743;-41
2022/01/23 00:54:10;;;;;;;3.72;1.38;;;22.90;33.00;;;;;;5024869;28;20037;-41
2022/01/23 00:56:37;;;;;;;2.10;1.00;;;22.90;33.00;;;;;;5023785;28;20025;-41
2022/01/23 00:59:04;;;;;;;2.72;1.10;;;22.90;33.00;;;;;;5023458;28;20033;-41
2022/01/23 01:01:30;;;;;;;2.58;1.10;;;22.90;33.00;;;;;;5023982;28;20417;-41
2022/01/23 01:03:56;;;;;;;2.05;1.05;;;22.90;33.00;;;;;;5023989;28;20501;-41
2022/01/23 01:06:23;;;;;;;2.22;1.20;;;22.90;32.90;;;;;;5023773;28;20025;-40
2022/01/23 01:08:50;;;;;;;2.58;1.20;;;22.90;32.90;;;;;;5024677;28;20068;-41
2022/01/23 01:14:19;;;;;;;2.85;1.25;;;22.80;32.80;;;;;;5024852;28;20032;-41
2022/01/23 01:30:31;;;;;;;1.92;0.90;;;22.80;32.90;;;;;;5022909;28;20026;-41
2022/01/23 01:37:51;;;;;;;2.55;1.10;;;22.80;32.90;;;;;;5023660;28;20030;-41
2022/01/23 01:40:17;;;;;;;1.85;0.90;;;22.70;32.90;;;;;;5024550;28;20524;-41
2022/01/23 01:42:44;;;;;;;1.60;0.77;;;22.70;32.90;;;;;;5024629;28;20041;-41
2022/01/23 01:45:10;;;;;;;1.17;0.63;;;22.70;32.90;;;;;;5024632;28;20037;-41
2022/01/23 01:47:36;;;;;;;2.05;1.00;;;22.70;32.90;;;;;;5024167;28;20086;-41
2022/01/23 01:50:02;;;;;;;1.67;0.85;;;22.70;32.80;;;;;;5023860;28;20127;-42
2022/01/23 01:52:28;;;;;;;2.50;1.10;;;22.70;32.90;;;;;;5024415;28;20026;-41
2022/01/23 01:55:01;;;;;;;2.33;1.10;;;22.70;32.80;;;;;;5023640;28;20678;-41
2022/01/23 01:57:31;;;;;;;1.88;0.80;;;22.70;32.80;;;;;;5023539;28;20496;-40
2022/01/23 02:00:47;;;;;;;1.77;0.85;;;22.60;32.70;;;;;;5023427;28;20040;-41
2022/01/23 02:10:48;;;;;;;2.25;0.90;;;22.60;32.70;;;;;;5021787;28;20088;-41
2022/01/23 02:13:17;;;;;;;2.05;0.80;;;22.60;32.70;;;;;;5023193;28;20208;-41
2022/01/23 02:51:15;;;;;;;1.98;0.88;;;22.40;32.70;;;;;;5023204;28;20028;-41
2022/01/23 02:56:34;;;;;;;1.23;0.63;;;22.50;32.80;;;;;;5021783;28;20095;-41
2022/01/23 02:59:10;;;;;;;1.42;0.65;;;22.40;32.70;;;;;;5023552;28;20478;-41
2022/01/23 03:01:47;;;;;;;2.22;0.90;;;22.40;32.70;;;;;;5023466;28;20088;-41
2022/01/23 03:04:12;;;;;;;2.30;1.27;;;22.40;32.70;;;;;;5023993;28;20032;-41
2022/01/23 03:09:52;;;;;;;1.55;0.80;;;22.40;32.70;;;;;;5026658;28;20036;-41
2022/01/23 03:15:02;;;;;;;1.65;0.80;;;22.40;32.70;;;;;;5026060;28;20032;-40
2022/01/23 03:26:13;;;;;;;1.67;0.90;;;22.40;32.70;;;;;;5026376;28;20543;-41
2022/01/23 03:31:28;;;;;;;1.75;0.80;;;22.30;32.70;;;;;;5026576;28;20109;-40
2022/01/23 03:33:54;;;;;;;2.30;1.10;;;22.30;32.70;;;;;;5027100;28;20037;-41
2022/01/23 03:36:20;;;;;;;2.08;0.73;;;22.30;32.70;;;;;;5026343;28;20366;-40
2022/01/23 03:38:46;;;;;;;1.80;0.80;;;22.30;32.70;;;;;;5025041;28;20133;-40
2022/01/23 03:41:12;;;;;;;1.40;0.75;;;22.30;32.70;;;;;;5027181;28;20100;-41
2022/01/23 03:43:40;;;;;;;2.58;1.02;;;22.30;32.70;;;;;;5025291;28;20094;-41
2022/01/23 03:46:34;;;;;;;2.38;1.27;;;22.30;32.70;;;;;;5026106;28;20060;-41
2022/01/23 03:51:45;;;;;;;2.30;0.80;;;22.30;32.70;;;;;;5021955;28;20476;-41
2022/01/23 03:54:11;;;;;;;1.88;0.88;;;22.30;32.80;;;;;;5021532;28;20117;-40
2022/01/23 03:56:37;;;;;;;1.85;0.80;;;22.30;32.70;;;;;;5020968;28;20021;-41
2022/01/23 03:59:03;;;;;;;1.30;0.70;;;22.30;32.70;;;;;;5025109;28;20035;-41
2022/01/23 04:01:28;;;;;;;1.60;0.82;;;22.30;32.70;;;;;;5025391;28;20673;-40
2022/01/23 04:03:58;;;;;;;2.30;1.00;;;22.20;32.60;;;;;;5025933;28;20112;-40
2022/01/23 04:06:24;;;;;;;2.05;0.88;;;22.20;32.60;;;;;;5021048;28;20559;-41
2022/01/23 04:08:50;;;;;;;2.10;1.10;;;22.20;32.60;;;;;;5021407;28;20025;-41
2022/01/23 04:11:16;;;;;;;1.67;0.95;;;22.20;32.60;;;;;;5006971;28;20572;-40
2022/01/23 04:13:59;;;;;;;2.03;1.00;;;22.20;32.70;;;;;;5024255;28;20021;-41
2022/01/23 04:32:41;;;;;;;2.72;1.15;;;22.10;32.60;;;;;;5021419;28;20037;-41
2022/01/23 04:46:06;;;;;;;2.03;0.90;;;22.10;32.60;;;;;;5024979;28;20040;-41
2022/01/23 04:59:45;;;;;;;1.98;1.00;;;22.10;32.60;;;;;;5025316;28;20033;-40
2022/01/23 05:03:01;;;;;;;1.77;0.88;;;22.00;32.60;;;;;;5025506;28;20268;-41
2022/01/23 05:05:12;;;;;;;2.13;1.00;;;22.10;32.60;;;;;;5023830;28;20029;-41
2022/01/23 05:07:40;;;;;;;1.73;0.98;;;22.00;32.60;;;;;;5022617;28;20037;-41
2022/01/23 05:10:06;;;;;;;1.88;0.90;;;22.00;32.50;;;;;;5023053;28;20022;-41
2022/01/23 05:12:33;;;;;;;2.80;1.10;;;22.00;32.60;;;;;;5024836;28;20433;-40
2022/01/23 05:14:59;;;;;;;2.20;1.00;;;22.00;32.50;;;;;;5024157;28;20397;-41
2022/01/23 05:17:25;;;;;;;2.00;1.10;;;22.00;32.50;;;;;;5023934;28;20034;-41
2022/01/23 05:19:51;;;;;;;1.80;0.85;;;22.00;32.60;;;;;;5023621;28;20029;-40
2022/01/23 05:24:52;;;;;;;1.75;0.88;;;22.00;32.50;;;;;;5024593;28;20234;-41
2022/01/23 05:27:18;;;;;;;2.15;1.00;;;22.00;32.50;;;;;;5023168;28;20040;-41
2022/01/23 05:29:44;;;;;;;1.35;0.70;;;22.00;32.50;;;;;;5023482;28;20112;-41
2022/01/23 05:32:12;;;;;;;2.05;1.00;;;22.00;32.50;;;;;;5024291;28;20163;-41
2022/01/23 05:34:38;;;;;;;2.67;1.02;;;22.00;32.50;;;;;;5023008;28;20029;-41
2022/01/23 05:37:04;;;;;;;1.92;0.80;;;22.00;32.50;;;;;;5024077;28;20440;-41
2022/01/23 05:39:32;;;;;;;1.23;0.70;;;22.00;32.50;;;;;;5023381;28;20027;-41
2022/01/23 05:42:06;;;;;;;0.95;0.60;;;22.00;32.50;;;;;;5022047;28;20067;-40
2022/01/23 05:44:32;;;;;;;1.40;0.70;;;21.90;32.60;;;;;;5024375;28;20025;-41
2022/01/23 05:46:57;;;;;;;2.10;0.90;;;22.00;32.60;;;;;;5023033;28;20529;-40
2022/01/23 05:49:23;;;;;;;1.75;0.90;;;22.00;32.60;;;;;;5024259;28;20105;-40
2022/01/23 05:51:49;;;;;;;2.05;0.90;;;21.90;32.60;;;;;;5024126;28;20097;-41
2022/01/23 05:54:14;;;;;;;1.85;0.80;;;22.00;32.60;;;;;;5023081;28;20025;-41
2022/01/23 05:56:40;;;;;;;1.30;0.80;;;21.90;32.70;;;;;;5023918;28;20021;-41
2022/01/23 05:59:06;;;;;;;1.42;0.57;;;21.90;32.70;;;;;;5022889;28;20030;-41
2022/01/23 06:01:32;;;;;;;1.65;0.80;;;21.90;32.70;;;;;;5023148;28;20025;-40
2022/01/23 06:03:57;;;;;;;1.60;0.70;;;21.90;32.80;;;;;;5022853;28;20030;-41
2022/01/23 06:06:23;;;;;;;1.90;0.80;;;21.90;32.80;;;;;;5020949;28;20406;-40
2022/01/23 06:08:49;;;;;;;1.45;0.82;;;21.90;32.80;;;;;;5021421;28;20082;-41
2022/01/23 06:11:14;;;;;;;1.55;0.80;;;21.90;33.40;;;;;;5022784;28;20536;-41
2022/01/23 06:13:40;;;;;;;1.92;1.17;;;21.90;32.80;;;;;;5023345;28;20108;-40
2022/01/23 06:16:06;;;;;;;1.63;0.73;;;21.90;32.80;;;;;;5021139;28;20024;-41
2022/01/23 06:18:35;;;;;;;1.80;0.75;;;21.90;32.80;;;;;;5021410;28;20448;-40
2022/01/23 06:21:01;;;;;;;3.03;0.82;;;21.90;32.90;;;;;;5023026;28;20037;-40
2022/01/23 06:23:30;;;;;;;1.27;0.63;;;21.90;32.90;;;;;;5023040;28;20022;-40
2022/01/23 06:25:56;;;;;;;2.33;0.70;;;21.90;33.00;;;;;;5021669;28;20404;-40
2022/01/23 06:28:40;;;;;;;1.25;0.57;;;21.90;33.00;;;;;;5021618;28;20032;-41
2022/01/23 06:31:08;;;;;;;0.82;0.50;;;21.90;33.10;;;;;;5023238;28;20396;-41
2022/01/23 06:33:34;;;;;;;1.45;0.70;;;21.90;33.20;;;;;;5022802;28;20109;-41
2022/01/23 06:36:01;;;;;;;1.17;0.63;;;22.00;33.20;;;;;;5022611;28;20104;-41
2022/01/23 06:38:28;;;;;;;1.35;0.52;;;22.00;33.20;;;;;;5023208;28;20048;-41
2022/01/23 06:40:53;;;;;;;1.83;0.50;;;22.10;33.30;;;;;;5023574;28;20750;-40
2022/01/23 06:43:19;;;;;;;1.63;0.70;;;22.20;33.30;;;;;;5026398;28;20116;-40
2022/01/23 06:45:45;;;;;;;1.67;0.60;;;22.20;33.20;;;;;;5025335;28;20048;-40
2022/01/23 06:48:11;;;;;;;1.45;0.52;;;22.30;33.20;;;;;;5026629;28;20026;-41
2022/01/23 06:50:36;;;;;;;1.15;0.60;;;22.40;33.10;;;;;;5027029;28;20100;-41
2022/01/23 06:53:02;;;;;;;1.52;0.82;;;22.40;33.10;;;;;;5025649;28;20041;-40
2022/01/23 06:55:28;;;;;;;1.20;0.65;;;22.50;33.10;;;;;;5026897;28;20257;-40
2022/01/23 06:57:53;;;;;;;0.68;0.50;;;22.50;33.10;;;;;;5026892;28;20470;-41
2022/01/23 07:00:19;;;;;;;1.92;0.70;;;22.60;33.00;;;;;;5027005;28;20041;-40
2022/01/23 07:02:45;;;;;;;1.50;0.80;;;22.60;32.90;;;;;;5027260;28;20036;-41
2022/01/23 07:05:10;;;;;;;1.90;0.70;;;22.60;32.90;;;;;;5023446;28;20189;-41
2022/01/23 07:07:36;;;;;;;1.63;0.65;;;22.70;32.90;;;;;;5022245;28;20430;-42
2022/01/23 07:10:03;;;;;;;1.27;0.60;;;22.70;32.80;;;;;;5025941;28;20022;-40
2022/01/23 07:12:29;;;;;;;1.35;0.70;;;22.80;32.80;;;;;;5026134;28;20108;-41
2022/01/23 07:14:54;;;;;;;1.45;0.68;;;22.80;32.80;;;;;;5025299;28;20040;-41
2022/01/23 07:17:21;;;;;;;1.80;0.80;;;22.80;32.80;;;;;;5026055;28;20533;-41
2022/01/23 07:19:47;;;;;;;1.50;0.57;;;22.80;32.80;;;;;;5025571;28;20176;-42
2022/01/23 07:22:12;;;;;;;1.23;0.60;;;22.90;32.80;;;;;;5026167;28;20461;-41
2022/01/23 07:24:38;;;;;;;1.20;0.70;;;23.00;33.00;;;;;;5024591;28;20509;-41
2022/01/23 07:27:13;;;;;;;4.22;0.93;;;23.00;33.00;;;;;;5024817;28;20030;-41
2022/01/23 07:29:41;;;;;;;1.83;0.77;;;23.10;33.10;;;;;;5024174;28;20037;-42
2022/01/23 07:32:08;;;;;;;1.65;0.85;;;23.20;33.30;;;;;;5025974;28;20018;-42
2022/01/23 07:34:34;;;;;;;1.40;0.70;;;23.20;33.40;;;;;;5025697;28;20097;-41
2022/01/23 07:37:00;;;;;;;2.35;1.13;;;23.30;33.40;;;;;;5019759;28;20164;-41
2022/01/23 07:39:27;;;;;;;3.72;1.33;;;23.30;33.50;;;;;;5040207;28;20071;-42
2022/01/23 07:41:52;;;;;;;4.97;1.20;;;23.40;33.60;;;;;;5025933;28;20029;-41
2022/01/23 07:44:18;;;;;;;4.15;1.10;;;23.50;34.10;;;;;;5025188;28;20136;-41
2022/01/23 07:46:44;;;;;;;2.38;0.90;;;23.50;33.70;;;;;;5025746;28;20022;-41
2022/01/23 07:49:10;;;;;;;2.40;0.85;;;23.60;33.40;;;;;;5025769;28;20033;-41
2022/01/23 07:51:36;;;;;;;3.50;0.90;;;23.70;33.30;;;;;;5024485;28;20107;-41
2022/01/23 07:54:02;;;;;;;2.03;1.02;;;23.70;33.10;;;;;;5025886;28;20064;-41
2022/01/23 07:56:28;;;;;;;3.17;0.80;;;23.80;33.00;;;;;;5024971;28;20021;-41
2022/01/23 07:58:54;;;;;;;1.42;0.73;;;23.80;32.90;;;;;;5025220;28;20530;-41
2022/01/23 08:01:19;;;;;;;2.42;1.00;;;23.90;32.80;;;;;;5025154;28;20034;-41
2022/01/23 08:03:45;;;;;;;2.17;1.08;;;23.90;32.70;;;;;;5025384;28;20025;-41
2022/01/23 08:06:12;;;;;;;3.97;1.00;;;24.00;32.60;;;;;;5025224;28;20036;-41
2022/01/23 08:08:38;;;;;;;1.63;0.90;;;24.10;32.60;;;;;;5020884;28;20072;-42
2022/01/23 08:11:04;;;;;;;2.47;0.70;;;24.10;32.50;;;;;;5019027;28;20029;-41
2022/01/23 08:13:30;;;;;;;3.03;0.90;;;24.20;32.40;;;;;;5022079;28;20033;-42
2022/01/23 08:15:55;;;;;;;1.75;0.70;;;24.20;32.30;;;;;;5024617;28;20026;-42
2022/01/23 08:18:21;;;;;;;2.95;0.80;;;24.30;32.30;;;;;;5013876;28;20029;-41
2022/01/23 08:20:47;;;;;;;2.78;1.08;;;24.30;32.20;;;;;;5025928;28;20493;-42
2022/01/23 08:23:13;;;;;;;4.50;0.70;;;24.40;32.10;;;;;;5025193;28;20493;-41
2022/01/23 08:25:39;;;;;;;3.35;1.10;;;24.40;32.10;;;;;;5025885;28;20029;-41
2022/01/23 08:28:07;;;;;;;1.85;0.80;;;24.50;32.00;;;;;;5025543;28;20563;-41
2022/01/23 08:30:33;;;;;;;2.10;0.80;;;24.50;31.90;;;;;;5025156;28;20033;-41
2022/01/23 08:32:58;;;;;;;1.77;0.90;;;24.60;31.80;;;;;;5025687;28;20140;-44
2022/01/23 08:35:26;;;;;;;1.40;0.60;;;24.60;31.70;;;;;;5025507;28;20386;-42
2022/01/23 08:37:52;;;;;;;1.90;0.90;;;24.60;32.40;;;;;;5025348;28;20033;-41
2022/01/23 08:40:34;;;;;;;1.95;0.77;;;24.70;31.70;;;;;;5023977;28;20052;-42
2022/01/23 08:43:00;;;;;;;1.73;0.77;;;24.70;31.60;;;;;;5024008;28;20022;-42
2022/01/23 08:45:25;;;;;;;1.88;1.00;;;24.80;31.50;;;;;;5025276;28;20029;-41
2022/01/23 08:47:51;;;;;;;2.45;0.80;;;24.80;31.40;;;;;;5023302;28;20407;-41
2022/01/23 08:50:17;;;;;;;1.42;0.70;;;24.80;31.40;;;;;;5023579;28;20523;-42
2022/01/23 08:52:42;;;;;;;1.73;0.60;;;24.80;31.60;;;;;;5023405;28;20264;-42
2022/01/23 08:55:08;;;;;;;1.02;0.60;;;24.90;31.70;;;;;;5023575;28;20055;-43
2022/01/23 08:57:34;;;;;;;1.60;0.85;;;24.90;31.90;;;;;;5024953;28;20583;-42
2022/01/23 09:00:00;;;;;;;1.85;0.65;;;25.00;31.90;;;;;;5021146;28;20025;-41
2022/01/23 09:02:27;;;;;;;2.33;0.80;;;25.00;32.10;;;;;;5023846;28;20037;-42
2022/01/23 09:04:53;;;;;;;1.30;0.60;;;25.00;32.10;;;;;;5023358;28;20517;-42
2022/01/23 09:07:19;;;;;;;3.17;0.80;;;25.10;32.00;;;;;;5019325;28;20077;-42
2022/01/23 09:09:44;;;;;;;1.88;0.85;;;25.00;31.90;;;;;;5003935;28;20132;-42
2022/01/23 09:14:49;;;;;;;1.73;0.70;;;25.10;31.70;;;;;;5015285;28;20731;-41
2022/01/23 09:17:15;;;;;;;1.30;0.60;;;25.10;31.60;;;;;;5017404;28;20033;-41
2022/01/23 09:19:40;;;;;;;2.13;0.70;;;25.10;31.50;;;;;;5023151;28;20115;-42
2022/01/23 09:22:06;;;;;;;1.05;0.60;;;25.20;31.40;;;;;;5022158;28;20490;-41
2022/01/23 09:24:32;;;;;;;1.17;0.70;;;25.20;31.90;;;;;;5018952;28;20401;-42
2022/01/23 09:27:07;;;;;;;1.33;0.65;;;25.20;31.30;;;;;;5022279;28;20087;-41
2022/01/23 09:29:37;;;;;;;1.65;0.70;;;25.20;31.30;;;;;;5024346;28;20025;-41
2022/01/23 09:32:06;;;;;;;2.67;0.80;;;25.20;31.20;;;;;;5023850;28;20025;-42
2022/01/23 09:34:33;;;;;;;1.25;0.60;;;25.20;31.20;;;;;;5024466;28;20040;-42
2022/01/23 09:37:02;;;;;;;2.58;0.93;;;25.30;31.10;;;;;;5024304;28;20030;-42
2022/01/23 09:39:29;;;;;;;1.92;0.60;;;25.30;31.10;;;;;;5022726;28;20119;-41
2022/01/23 09:42:00;;;;;;;1.75;0.77;;;25.30;30.90;;;;;;5019555;28;20029;-42
2022/01/23 09:44:30;;;;;;;1.83;0.67;;;25.30;31.00;;;;;;5021780;28;20056;-41
2022/01/23 09:46:57;;;;;;;1.60;0.70;;;25.40;31.00;;;;;;5013066;28;20037;-41
2022/01/23 09:49:25;;;;;;;1.33;0.65;;;25.40;31.00;;;;;;5013331;28;20061;-41
2022/01/23 09:51:54;;;;;;;1.42;0.70;;;25.40;30.90;;;;;;5013961;28;20412;-42
2022/01/23 09:54:21;;;;;;;1.80;0.88;;;25.40;31.00;;;;;;5011554;28;20091;-41
2022/01/23 09:56:47;;;;;;;1.85;0.70;;;25.40;30.90;;;;;;5020886;28;20027;-41
2022/01/23 09:59:15;;;;;;;1.42;0.68;;;25.40;30.90;;;;;;5016805;28;20112;-42
2022/01/23 10:01:42;;;;;;;1.88;0.80;;;25.40;31.00;;;;;;5022220;28;20681;-41
2022/01/23 10:04:09;;;;;;;2.70;1.00;;;25.40;30.90;;;;;;5023294;28;20047;-42
2022/01/23 10:06:35;;;;;;;2.35;0.80;;;25.50;31.00;;;;;;5022928;28;20595;-42
2022/01/23 10:09:06;;;;;;;1.50;0.80;;;25.40;31.10;;;;;;5022729;28;20379;-41
2022/01/23 10:11:37;;;;;;;1.88;0.82;;;25.40;31.10;;;;;;5023085;28;20501;-42
2022/01/23 10:14:03;;;;;;;1.95;0.93;;;25.40;31.10;;;;;;5020899;28;20549;-42
2022/01/23 10:16:30;;;;;;;3.20;1.05;;;25.50;31.20;;;;;;5024715;28;20044;-41
2022/01/23 10:18:57;;;;;;;1.98;0.60;;;25.50;31.10;;;;;;5025203;28;20025;-42
2022/01/23 10:21:23;;;;;;;3.67;0.95;;;25.50;31.20;;;;;;5026715;28;20052;-41
2022/01/23 10:23:51;;;;;;;2.42;1.17;;;25.50;31.20;;;;;;5027324;28;20037;-41
2022/01/23 10:26:37;;;;;;;1.75;0.90;;;25.40;31.20;;;;;;5025759;28;20029;-41
2022/01/23 10:29:25;;;;;;;3.83;1.15;;;25.40;31.20;;;;;;5026844;28;20516;-41
2022/01/23 10:32:10;;;;;;;1.55;0.82;;;25.50;31.30;;;;;;5026055;28;20028;-41
2022/01/23 10:34:43;;;;;;;2.13;0.90;;;25.50;32.00;;;;;;5027818;28;20074;-42
2022/01/23 10:37:11;;;;;;;1.85;0.98;;;25.50;31.40;;;;;;5024270;28;20105;-42
2022/01/23 10:39:46;;;;;;;3.35;1.25;;;25.50;31.40;;;;;;5025654;28;20109;-41
2022/01/23 10:48:11;;;;;;;1.88;0.70;;;25.50;31.60;;;;;;5023945;28;20026;-41
2022/01/23 10:50:37;;;;;;;3.85;0.98;;;25.50;31.80;;;;;;5032297;28;20022;-42
2022/01/23 10:53:03;;;;;;;2.45;1.20;;;25.50;32.00;;;;;;5026938;28;20540;-41
2022/01/23 10:55:34;;;;;;;2.83;1.15;;;25.50;32.10;;;;;;5026166;28;20033;-42
2022/01/23 10:58:03;;;;;;;2.80;1.40;;;25.50;32.10;;;;;;5025640;28;20642;-41
2022/01/23 11:00:34;;;;;;;2.92;0.90;;;25.50;32.10;;;;;;5024478;28;20120;-41
2022/01/23 11:03:15;;;;;;;2.33;1.10;;;25.50;31.90;;;;;;5024531;28;20524;-41
2022/01/23 11:05:41;;;;;;;2.38;1.08;;;25.50;31.90;;;;;;5025894;28;20565;-41
2022/01/23 11:08:23;;;;;;;2.13;1.10;;;25.50;31.90;;;;;;5023964;28;20033;-41
2022/01/23 11:10:54;;;;;;;2.28;1.10;;;25.50;31.90;;;;;;5025201;28;20021;-42
2022/01/23 11:19:28;;;;;;;2.58;1.27;;;25.50;31.60;;;;;;5025408;28;20041;-41
2022/01/23 11:21:54;;;;;;;2.72;1.00;;;25.40;31.50;;;;;;5025937;28;20025;-40
2022/01/23 11:24:21;;;;;;;3.58;1.35;;;25.50;31.50;;;;;;5025982;28;20032;-41
2022/01/23 11:26:47;;;;;;;2.60;1.20;;;25.40;31.50;;;;;;5023087;28;20034;-41
2022/01/23 11:29:18;;;;;;;2.13;1.00;;;25.40;31.50;;;;;;5019875;28;20615;-42
2022/01/23 11:31:45;;;;;;;2.80;1.20;;;25.40;31.50;;;;;;5022515;28;20081;-42
2022/01/23 11:34:13;;;;;;;2.20;1.13;;;25.40;31.80;;;;;;5024223;28;20482;-42
2022/01/23 11:36:40;;;;;;;3.25;1.55;;;25.40;31.90;;;;;;5005781;28;20437;-42
2022/01/23 11:39:19;;;;;;;2.58;1.30;;;25.40;31.90;;;;;;5024016;28;20030;-41
2022/01/23 11:50:47;;;;;;;2.80;1.45;;;25.40;31.30;;;;;;5025180;28;20130;-42
2022/01/23 11:59:14;;;;;;;3.13;1.65;;;25.30;31.40;;;;;;5024157;28;20079;-41
2022/01/23 12:01:41;;;;;;;3.63;1.80;;;25.40;31.30;;;;;;5022817;28;20040;-42
2022/01/23 12:04:07;;;;;;;3.63;1.67;;;25.40;31.30;;;;;;5023455;28;20033;-42
2022/01/23 12:06:39;;;;;;;6.30;1.90;;;25.40;31.30;;;;;;5024798;28;20053;-41
2022/01/23 12:09:13;;;;;;;3.15;1.38;;;25.40;31.30;;;;;;5025062;28;20029;-41
2022/01/23 12:17:01;;;;;;;4.63;1.70;;;25.40;31.30;;;;;;5012269;28;20033;-41
2022/01/23 12:19:31;;;;;;;5.38;1.63;;;25.40;31.30;;;;;;5025196;28;20441;-41
2022/01/23 12:21:59;;;;;;;4.85;2.13;;;25.40;31.30;;;;;;5024979;28;20033;-41
2022/01/23 12:24:26;;;;;;;3.45;1.40;;;25.40;31.20;;;;;;5025296;28;20041;-42
2022/01/23 12:27:19;;;;;;;6.30;1.50;;;25.40;31.20;;;;;;5024895;28;20041;-41
2022/01/23 12:29:45;;;;;;;3.92;1.70;;;25.40;31.30;;;;;;5024199;28;20517;-41
2022/01/23 12:32:27;;;;;;;4.95;1.80;;;25.40;31.10;;;;;;5024125;28;20029;-42
2022/01/23 12:34:56;;;;;;;3.78;1.35;;;25.40;31.00;;;;;;5025528;28;20029;-41
2022/01/23 12:37:23;;;;;;;2.50;1.42;;;25.40;30.90;;;;;;5025425;28;20099;-42
2022/01/23 12:40:24;;;;;;;2.72;1.30;;;25.40;31.00;;;;;;5023912;28;20056;-42
2022/01/23 12:43:17;;;;;;;3.92;1.58;;;25.40;31.00;;;;;;5025112;28;20034;-41
2022/01/23 12:45:53;;;;;;;4.57;1.70;;;25.40;30.90;;;;;;5024572;28;20556;-41
2022/01/23 12:48:25;;;;;;;2.78;1.55;;;25.40;31.00;;;;;;5024958;28;20033;-42
2022/01/23 12:50:59;;;;;;;2.77;1.43;;;25.40;31.00;;;;;;5025481;28;20090;-41
2022/01/23 12:53:43;;;;;;;5.25;1.95;;;25.40;30.90;;;;;;5024042;28;20105;-41
2022/01/23 12:56:11;;;;;;;4.57;1.45;;;25.40;31.00;;;;;;5025466;28;20436;-41
2022/01/23 12:58:37;;;;;;;4.10;1.40;;;25.40;30.90;;;;;;5025385;28;20032;-41
2022/01/23 13:01:14;;;;;;;3.65;1.50;;;25.40;30.90;;;;;;5024994;28;20041;-41
2022/01/23 13:03:43;;;;;;;3.42;1.55;;;25.40;30.90;;;;;;5025412;28;20033;-41
2022/01/23 13:06:11;;;;;;;2.55;1.25;;;25.40;30.90;;;;;;5024981;28;20025;-41
2022/01/23 13:08:50;;;;;;;3.08;1.35;;;25.40;30.90;;;;;;5025160;28;20025;-41
2022/01/23 13:11:49;;;;;;;3.25;1.77;;;25.40;30.90;;;;;;5024586;28;20502;-41
2022/01/23 13:14:05;;;;;;;3.08;1.40;;;25.40;30.90;;;;;;5024636;28;20029;-42
2022/01/23 13:16:38;;;;;;;2.72;1.20;;;25.40;31.10;;;;;;5039780;28;20091;-42
2022/01/23 13:30:21;;;;;;;2.95;1.10;;;25.40;30.90;;;;;;5024389;28;20413;-41
2022/01/23 13:32:50;;;;;;;2.55;1.25;;;25.40;30.90;;;;;;5024716;28;20026;-42
2022/01/23 13:35:17;;;;;;;2.20;1.25;;;25.40;30.90;;;;;;5024347;28;20036;-41
2022/01/23 13:37:57;;;;;;;2.40;1.02;;;25.40;30.90;;;;;;5024374;28;20032;-42
2022/01/23 13:40:29;;;;;;;2.95;1.40;;;25.40;30.90;;;;;;5024370;28;20689;-42
2022/01/23 13:53:35;;;;;;;2.27;1.20;;;25.30;30.80;;;;;;5024467;28;20083;-42
2022/01/23 13:58:53;;;;;;;8.07;1.23;;;25.30;30.80;;;;;;5024240;28;20045;-41
2022/01/23 14:02:10;;;;;;;3.40;1.88;;;25.40;30.80;;;;;;5023320;28;20037;-41
2022/01/23 14:04:06;;;;;;;3.03;1.40;;;25.40;30.80;;;;;;5023454;28;20133;-41
2022/01/23 14:06:33;;;;;;;2.65;0.90;;;25.30;30.70;;;;;;5024092;28;20529;-42
2022/01/23 14:09:07;;;;;;;2.00;0.95;;;25.40;30.70;;;;;;5024426;28;20037;-41
2022/01/23 14:11:33;;;;;;;2.50;1.35;;;25.30;30.70;;;;;;5024028;28;20516;-41
2022/01/23 14:14:48;;;;;;;1.90;1.13;;;25.40;30.70;;;;;;5023594;28;20441;-41
2022/01/23 14:17:15;;;;;;;2.05;1.00;;;25.30;30.80;;;;;;5000828;28;20111;-42
2022/01/23 14:19:41;;;;;;;2.08;1.00;;;25.40;30.70;;;;;;5001354;28;20048;-41
2022/01/23 14:22:07;;;;;;;1.65;0.88;;;25.40;30.70;;;;;;5004165;28;20037;-41
2022/01/23 14:24:37;;;;;;;1.67;0.90;;;25.30;30.70;;;;;;5023845;28;20504;-41
2022/01/23 14:27:09;;;;;;;2.10;0.95;;;25.40;30.60;;;;;;5024048;28;20033;-41
2022/01/23 14:29:49;;;;;;;2.47;0.90;;;25.30;30.60;;;;;;5024145;28;20040;-41
2022/01/23 14:32:31;;;;;;;1.10;0.60;;;25.40;30.70;;;;;;5024056;28;20116;-42
2022/01/23 14:35:14;;;;;;;1.80;0.95;;;25.40;30.60;;;;;;5024027;28;20367;-42
2022/01/23 14:37:41;;;;;;;1.70;0.80;;;25.40;30.60;;;;;;5023826;28;20493;-42
2022/01/23 14:40:27;;;;;;;1.65;0.80;;;25.30;30.60;;;;;;5024157;28;20068;-42
2022/01/23 14:43:12;;;;;;;1.75;0.85;;;25.30;30.60;;;;;;5023738;28;20029;-41
2022/01/23 14:45:47;;;;;;;1.88;0.82;;;25.30;30.60;;;;;;5023868;28;20083;-41
2022/01/23 14:48:15;;;;;;;1.17;0.77;;;25.40;30.60;;;;;;5023478;28;20104;-41
2022/01/23 14:50:44;;;;;;;1.38;0.70;;;25.40;30.60;;;;;;5024001;28;20072;-42
2022/01/23 14:53:16;;;;;;;1.65;0.95;;;25.40;30.60;;;;;;5024041;28;20021;-41
2022/01/23 14:55:46;;;;;;;2.20;1.10;;;25.30;30.50;;;;;;5023936;28;20036;-41
2022/01/23 14:58:13;;;;;;;1.92;1.00;;;25.40;30.60;;;;;;5023793;28;20025;-42
2022/01/23 15:00:40;;;;;;;1.52;0.80;;;25.30;30.60;;;;;;5023586;28;20034;-41
2022/01/23 15:03:08;;;;;;;1.70;0.80;;;25.30;30.60;;;;;;5026012;28;20065;-41
2022/01/23 15:05:37;;;;;;;2.25;0.90;;;25.30;30.50;;;;;;5027011;28;20430;-41
2022/01/23 15:08:07;;;;;;;1.60;0.60;;;25.40;30.60;;;;;;5026499;28;20033;-42
2022/01/23 15:10:34;;;;;;;1.42;0.65;;;25.30;30.70;;;;;;5027182;28;20155;-42
2022/01/23 15:12:59;;;;;;;1.23;0.65;;;25.30;30.60;;;;;;5027275;28;20061;-41
2022/01/23 15:15:27;;;;;;;1.15;0.55;;;25.40;30.70;;;;;;5026968;28;20115;-42
2022/01/23 15:17:53;;;;;;;2.25;0.65;;;25.30;30.70;;;;;;5026969;28;20013;-42
2022/01/23 15:20:19;;;;;;;1.13;0.80;;;25.40;31.30;;;;;;5025791;28;20120;-41
2022/01/23 15:22:46;;;;;;;1.55;0.88;;;25.30;30.60;;;;;;5026975;28;20345;-41
2022/01/23 15:25:13;;;;;;;1.13;0.60;;;25.40;30.60;;;;;;5026710;28;20095;-42
2022/01/23 15:27:40;;;;;;;1.42;0.65;;;25.30;30.60;;;;;;5025954;28;20029;-41
2022/01/23 15:30:09;;;;;;;1.98;0.75;;;25.30;30.60;;;;;;5026377;28;20030;-42
2022/01/23 15:32:35;;;;;;;2.00;1.00;;;25.40;30.60;;;;;;5027234;28;20129;-41
2022/01/23 15:35:01;;;;;;;1.70;0.80;;;25.40;30.50;;;;;;5026009;28;20036;-41
2022/01/23 15:37:27;;;;;;;1.63;0.60;;;25.30;30.60;;;;;;5025988;28;20137;-41
2022/01/23 15:39:53;;;;;;;1.42;0.70;;;25.40;30.50;;;;;;5026439;28;20397;-42
2022/01/23 15:42:19;;;;;;;1.83;0.80;;;25.30;30.50;;;;;;5027157;28;20030;-42
2022/01/23 15:44:44;;;;;;;1.23;0.60;;;25.30;30.50;;;;;;5026261;28;20029;-41
2022/01/23 15:47:11;;;;;;;1.17;0.60;;;25.30;30.50;;;;;;5021006;28;20060;-41
2022/01/23 15:49:36;;;;;;;1.45;0.73;;;25.40;30.50;;;;;;5019280;28;20524;-42
2022/01/23 15:52:03;;;;;;;1.30;0.70;;;25.40;30.50;;;;;;5016248;28;20053;-41
2022/01/23 15:54:29;;;;;;;1.73;0.70;;;25.40;30.50;;;;;;5009070;28;20040;-42
2022/01/23 15:56:56;;;;;;;3.47;1.10;;;25.30;30.50;;;;;;5006207;28;20383;-41
2022/01/23 15:59:22;;;;;;;1.73;0.70;;;25.30;30.50;;;;;;5006492;28;20606;-41
2022/01/23 16:01:49;;;;;;;1.70;0.90;;;25.30;30.50;;;;;;5015046;28;20038;-41
2022/01/23 16:04:19;;;;;;;2.67;0.90;;;25.40;30.50;;;;;;5006567;28;20034;-40
2022/01/23 16:06:46;;;;;;;1.80;0.77;;;25.30;30.60;;;;;;5006174;28;20570;-41
2022/01/23 16:09:12;;;;;;;1.35;0.60;;;25.30;31.20;;;;;;5006407;28;20038;-41
2022/01/23 16:11:38;;;;;;;1.80;0.80;;;25.30;30.60;;;;;;5006571;28;20654;-42
2022/01/23 16:14:04;;;;;;;1.48;0.68;;;25.30;30.70;;;;;;5008313;28;20018;-41
2022/01/23 16:16:31;;;;;;;2.08;0.90;;;25.30;30.70;;;;;;5025505;28;20039;-41